Terminal Aerodrome Forecast
Issued by NWS Caribou, ME

Home | Current Version | Previous Version | Text Only | Print | Product List | Glossary On
Versions: 1 2 3 4 5 6 7 8 9 10 11 12 13 14 15 16 17 18 19 20 21
185
FTUS41 KCAR 261949 AAA
TAFBGR
TAF AMD
KBGR 261949Z 2620/2718 35004KT P6SM FEW250
     FM270700 VRB03KT P6SM OVC060
     FM270900 13005KT P6SM OVC015
     FM271100 13006KT 5SM -SN OVC020
     FM271300 13008KT 2SM -SN OVC015=

USA.gov is the U.S. government's official web portal to all federal, state and local government web resources and services.